Time;durP1;ratioP1;P1;durP2;ratioP2;P2;SDS_P1;SDS_P2;PMS_P1;PMS_P2;Temp;Humidity;BMP_temperature;BMP_pressure;BME280_temperature;BME280_humidity;BME280_pressure;Samples;Min_cycle;Max_cycle;Signal;HPM_P1;HPM_P2
2022/12/09 00:01:06;;;;;;;;;;;;;;;0.74;94.81348;100829.8;;;;-76
2022/12/09 00:03:00;;;;;;;11.1;5;;;;;;;;;;;;;-76
2022/12/09 00:06:08;;;;;;;;;;;;;;;0.6;94.87793;100829;;;;-76
2022/12/09 00:11:04;;;;;;;;;;;;;;;0.56;94.88281;100822.5;;;;-76
2022/12/09 00:16:07;;;;;;;;;;;;;;;0.39;94.82324;100828.1;;;;-76
2022/12/09 00:21:13;;;;;;;;;;;;;;;0.31;94.94238;100827;;;;-76
2022/12/09 00:26:04;;;;;;;;;;;;;;;0.2;94.85449;100824.1;;;;-76
2022/12/09 00:31:05;;;;;;;;;;;;;;;0.07;94.91406;100823.9;;;;-76
2022/12/09 00:32:58;;;;;;;9.8;4.5;;;;;;;;;;;;;-76
2022/12/09 00:36:10;;;;;;;;;;;;;;;-0.03;94.7627;100822.7;;;;-75
2022/12/09 00:41:04;;;;;;;;;;;;;;;-0.11;94.68066;100824.2;;;;-75
2022/12/09 00:46:04;;;;;;;;;;;;;;;-0.21;94.81738;100832.7;;;;-75
2022/12/09 00:51:04;;;;;;;;;;;;;;;-0.26;94.66699;100837.2;;;;-75
2022/12/09 00:56:04;;;;;;;;;;;;;;;-0.35;94.79785;100832.1;;;;-76
2022/12/09 01:01:04;;;;;;;;;;;;;;;-0.4;94.62402;100830.1;;;;-75
2022/12/09 01:02:57;;;;;;;9.7;4.3;;;;;;;;;;;;;-75
2022/12/09 01:06:04;;;;;;;;;;;;;;;-0.46;94.66602;100844.2;;;;-75
2022/12/09 01:11:04;;;;;;;;;;;;;;;-0.54;94.55273;100840.4;;;;-74
2022/12/09 01:16:04;;;;;;;;;;;;;;;-0.59;94.60352;100845.2;;;;-75
2022/12/09 01:21:04;;;;;;;;;;;;;;;-0.68;94.43555;100840.5;;;;-75
2022/12/09 01:26:05;;;;;;;;;;;;;;;-0.78;94.44531;100844.5;;;;-75
2022/12/09 01:31:06;;;;;;;;;;;;;;;-0.82;94.22266;100846.9;;;;-75
2022/12/09 01:32:56;;;;;;;10.6;4.7;;;;;;;;;;;;;-76
2022/12/09 01:36:06;;;;;;;;;;;;;;;-0.89;94.13184;100850.3;;;;-76
2022/12/09 01:41:04;;;;;;;;;;;;;;;-0.96;94.20313;100847.5;;;;-76
2022/12/09 01:46:05;;;;;;;;;;;;;;;-1.07;93.98438;100851.7;;;;-75
2022/12/09 01:51:05;;;;;;;;;;;;;;;-1.13;93.73633;100851.3;;;;-76
2022/12/09 01:56:06;;;;;;;;;;;;;;;-1.15;94.1377;100856.2;;;;-76
2022/12/09 02:01:04;;;;;;;;;;;;;;;-1.22;94.0166;100855;;;;-76
2022/12/09 02:02:56;;;;;;;8.7;4;;;;;;;;;;;;;-75
2022/12/09 02:06:04;;;;;;;;;;;;;;;-1.22;93.67285;100852.9;;;;-77
2022/12/09 02:11:09;;;;;;;;;;;;;;;-1.22;93.93945;100850.4;;;;-77
2022/12/09 02:16:05;;;;;;;;;;;;;;;-1.24;94.03125;100846.1;;;;-76
2022/12/09 02:21:06;;;;;;;;;;;;;;;-1.28;93.75586;100845.9;;;;-76
2022/12/09 02:26:08;;;;;;;;;;;;;;;-1.3;93.56934;100841.7;;;;-76
2022/12/09 02:31:11;;;;;;;;;;;;;;;-1.37;93.51074;100838.1;;;;-76
2022/12/09 02:33:08;;;;;;;9;4;;;;;;;;;;;;;-76
2022/12/09 02:36:05;;;;;;;;;;;;;;;-1.44;93.75195;100835.1;;;;-76
2022/12/09 02:41:06;;;;;;;;;;;;;;;-1.52;93.57324;100832.5;;;;-76
2022/12/09 02:46:04;;;;;;;;;;;;;;;-1.55;93.40625;100835.2;;;;-76
2022/12/09 02:51:06;;;;;;;;;;;;;;;-1.57;93.34668;100832.3;;;;-75
2022/12/09 02:56:05;;;;;;;;;;;;;;;-1.64;93.43164;100826.2;;;;-76
2022/12/09 03:01:04;;;;;;;;;;;;;;;-1.68;93.35742;100829.2;;;;-76
2022/12/09 03:02:55;;;;;;;8.2;3.8;;;;;;;;;;;;;-76
2022/12/09 03:06:07;;;;;;;;;;;;;;;-1.69;93.4209;100824.8;;;;-77
2022/12/09 03:11:05;;;;;;;;;;;;;;;-1.7;93.31055;100818.9;;;;-76
2022/12/09 03:16:06;;;;;;;;;;;;;;;-1.69;93.33594;100817.5;;;;-77
2022/12/09 03:21:06;;;;;;;;;;;;;;;-1.64;93.50391;100806.5;;;;-76
2022/12/09 03:26:04;;;;;;;;;;;;;;;-1.71;93.52051;100809;;;;-76
2022/12/09 03:31:06;;;;;;;;;;;;;;;-1.65;93.54492;100813.9;;;;-76
2022/12/09 03:32:53;;;;;;;8.4;3.9;;;;;;;;;;;;;-75
2022/12/09 03:36:07;;;;;;;;;;;;;;;-1.71;93.27441;100810.9;;;;-75
2022/12/09 03:41:07;;;;;;;;;;;;;;;-1.68;93.4209;100814.1;;;;-75
2022/12/09 03:46:04;;;;;;;;;;;;;;;-1.74;93.44141;100812.6;;;;-76
2022/12/09 03:51:08;;;;;;;;;;;;;;;-1.82;93.50977;100803.3;;;;-77
2022/12/09 03:56:07;;;;;;;;;;;;;;;-1.85;93.49023;100805.6;;;;-77
2022/12/09 04:01:04;;;;;;;;;;;;;;;-1.94;93.40625;100805.8;;;;-76
2022/12/09 04:02:51;;;;;;;7.5;3.4;;;;;;;;;;;;;-76
2022/12/09 04:06:04;;;;;;;;;;;;;;;-1.97;93.34668;100795.4;;;;-76
2022/12/09 04:11:04;;;;;;;;;;;;;;;-2.05;93.30957;100791.5;;;;-76
2022/12/09 04:16:04;;;;;;;;;;;;;;;-2.03;93.22754;100792.3;;;;-78
2022/12/09 04:21:07;;;;;;;;;;;;;;;-2.09;93.20313;100794.9;;;;-77
2022/12/09 04:26:04;;;;;;;;;;;;;;;-2.11;93.28516;100796.1;;;;-77
2022/12/09 04:31:04;;;;;;;;;;;;;;;-2.1;93.37207;100792.1;;;;-76
2022/12/09 04:32:49;;;;;;;7.5;3.4;;;;;;;;;;;;;-75
2022/12/09 04:36:11;;;;;;;;;;;;;;;-2.11;93.14355;100794.9;;;;-76
2022/12/09 04:41:06;;;;;;;;;;;;;;;-2.08;93.28027;100793.8;;;;-75
2022/12/09 04:46:08;;;;;;;;;;;;;;;-2.14;93.16113;100788.6;;;;-75
2022/12/09 04:51:04;;;;;;;;;;;;;;;-2.11;93.30859;100787.1;;;;-75
2022/12/09 04:56:08;;;;;;;;;;;;;;;-2.07;93.31445;100787.3;;;;-76
2022/12/09 05:01:07;;;;;;;;;;;;;;;-2.14;93.09473;100786.8;;;;-75
2022/12/09 05:02:48;;;;;;;8.8;3.7;;;;;;;;;;;;;-76
2022/12/09 05:06:05;;;;;;;;;;;;;;;-2.12;93.18457;100789.3;;;;-76
2022/12/09 05:11:04;;;;;;;;;;;;;;;-2.1;93.31934;100790.6;;;;-76
2022/12/09 05:16:07;;;;;;;;;;;;;;;-2.1;93.20117;100789;;;;-75
2022/12/09 05:21:07;;;;;;;;;;;;;;;-2.11;93.24023;100786.2;;;;-77
2022/12/09 05:26:04;;;;;;;;;;;;;;;-2.09;93.32129;100785.3;;;;-75
2022/12/09 05:31:06;;;;;;;;;;;;;;;-2.17;93.21777;100793.5;;;;-76
2022/12/09 05:32:47;;;;;;;9.2;3.8;;;;;;;;;;;;;-77
2022/12/09 05:36:04;;;;;;;;;;;;;;;-2.19;93.23438;100790.9;;;;-77
2022/12/09 05:41:06;;;;;;;;;;;;;;;-2.19;93.29883;100791.8;;;;-77
2022/12/09 05:46:04;;;;;;;;;;;;;;;-2.17;93.24902;100786.4;;;;-76
2022/12/09 05:51:05;;;;;;;;;;;;;;;-2.17;93.11035;100787;;;;-75
2022/12/09 05:56:06;;;;;;;;;;;;;;;-2.14;93.13965;100788.3;;;;-77
2022/12/09 06:01:10;;;;;;;;;;;;;;;-2.09;93.20313;100782.1;;;;-76
2022/12/09 06:02:45;;;;;;;7.4;3.8;;;;;;;;;;;;;-77
2022/12/09 06:06:08;;;;;;;;;;;;;;;-2.08;93.16406;100787.9;;;;-76
2022/12/09 06:11:04;;;;;;;;;;;;;;;-1.97;93.38965;100786.5;;;;-75
2022/12/09 06:16:09;;;;;;;;;;;;;;;-1.94;93.60059;100786.5;;;;-76
2022/12/09 06:24:48;;;;;;;;;;;;;;;-1.74;93.23828;100787.8;;;;-77
2022/12/09 06:29:32;;;;;;;;;;;;;;;-1.83;93.46484;100783.4;;;;-75
2022/12/09 06:32:52;;;;;;;9;4.1;;;;;;;;;;;;;-78
2022/12/09 06:40:53;;;;;;;;;;;;;;;-1.87;93.86133;100769.4;;;;-77
2022/12/09 06:45:53;;;;;;;;;;;;;;;-1.86;93.65137;100770.9;;;;-77
2022/12/09 06:50:53;;;;;;;;;;;;;;;-1.92;93.78516;100773.4;;;;-76
2022/12/09 06:55:53;;;;;;;;;;;;;;;-1.93;93.93457;100772.3;;;;-76
2022/12/09 07:00:53;;;;;;;;;;;;;;;-1.97;93.94629;100774.9;;;;-75
2022/12/09 07:02:42;;;;;;;8.2;3.6;;;;;;;;;;;;;-76
2022/12/09 07:05:53;;;;;;;;;;;;;;;-2.02;93.77539;100774.8;;;;-76
2022/12/09 07:10:53;;;;;;;;;;;;;;;-2.08;93.87012;100773;;;;-76
2022/12/09 07:15:53;;;;;;;;;;;;;;;-2.13;93.86719;100763.8;;;;-79
2022/12/09 07:20:53;;;;;;;;;;;;;;;-2.19;93.8125;100770.6;;;;-77
2022/12/09 07:26:01;;;;;;;;;;;;;;;-2.23;93.82324;100772.5;;;;-77
2022/12/09 07:30:53;;;;;;;;;;;;;;;-2.23;93.75977;100782.6;;;;-77
2022/12/09 07:32:43;;;;;;;8.4;3.5;;;;;;;;;;;;;-76
2022/12/09 07:35:54;;;;;;;;;;;;;;;-2.27;93.50586;100788.8;;;;-77
2022/12/09 07:40:54;;;;;;;;;;;;;;;-2.25;93.56348;100790.7;;;;-76
2022/12/09 07:45:53;;;;;;;;;;;;;;;-2.31;93.47852;100791;;;;-76
2022/12/09 07:50:53;;;;;;;;;;;;;;;-2.32;93.38672;100799.9;;;;-76
2022/12/09 07:55:53;;;;;;;;;;;;;;;-2.36;93.49805;100804.1;;;;-76
2022/12/09 08:00:53;;;;;;;;;;;;;;;-2.34;93.43848;100806.9;;;;-75
2022/12/09 08:02:40;;;;;;;7.2;2.9;;;;;;;;;;;;;-76
2022/12/09 08:05:54;;;;;;;;;;;;;;;-2.42;93.40918;100807.5;;;;-75
2022/12/09 08:10:53;;;;;;;;;;;;;;;-2.39;93.22461;100807.3;;;;-76
2022/12/09 08:15:52;;;;;;;;;;;;;;;-2.4;93.06055;100806.9;;;;-75
2022/12/09 08:20:53;;;;;;;;;;;;;;;-2.42;93.1084;100810.8;;;;-77
2022/12/09 08:25:55;;;;;;;;;;;;;;;-2.4;92.85742;100812.3;;;;-77
2022/12/09 08:30:53;;;;;;;;;;;;;;;-2.34;92.93359;100817.7;;;;-77
2022/12/09 08:32:38;;;;;;;8.3;3.7;;;;;;;;;;;;;-74
2022/12/09 08:35:56;;;;;;;;;;;;;;;-2.27;92.93848;100817.5;;;;-77
2022/12/09 08:40:52;;;;;;;;;;;;;;;-2.12;92.7373;100813.9;;;;-75
2022/12/09 08:45:52;;;;;;;;;;;;;;;-2.07;92.89648;100808.4;;;;-76
2022/12/09 08:50:53;;;;;;;;;;;;;;;-1.98;92.94043;100801.6;;;;-76
2022/12/09 08:55:53;;;;;;;;;;;;;;;-1.88;92.89551;100805.5;;;;-76
2022/12/09 09:00:53;;;;;;;;;;;;;;;-1.76;92.95605;100799.7;;;;-76
2022/12/09 09:02:37;;;;;;;7.9;3.6;;;;;;;;;;;;;-78
2022/12/09 09:07:48;;;;;;;;;;;;;;;-1.47;92.51563;100795.1;;;;-74
2022/12/09 09:10:40;;;;;;;;;;;;;;;-1.52;92.64063;100794.7;;;;-75
2022/12/09 09:15:41;;;;;;;;;;;;;;;-1.42;92.98633;100791.8;;;;-77
2022/12/09 09:20:39;;;;;;;;;;;;;;;-1.23;93.29395;100798.8;;;;-75
2022/12/09 09:25:42;;;;;;;;;;;;;;;-1.03;93.39355;100812;;;;-76
2022/12/09 09:30:40;;;;;;;;;;;;;;;-0.67;92.46191;100808.8;;;;-75
2022/12/09 09:32:38;;;;;;;10.2;4.6;;;;;;;;;;;;;-75
2022/12/09 09:35:41;;;;;;;;;;;;;;;-0.33;90.90137;100809.8;;;;-75
2022/12/09 09:40:43;;;;;;;;;;;;;;;-0.09;90.37207;100811.2;;;;-75
2022/12/09 09:45:39;;;;;;;;;;;;;;;-0.03;90.38379;100809.2;;;;-76
2022/12/09 09:50:43;;;;;;;;;;;;;;;-0.03;90.62109;100811;;;;-77
2022/12/09 09:55:45;;;;;;;;;;;;;;;0.02;91.09473;100813.7;;;;-77
2022/12/09 10:00:44;;;;;;;;;;;;;;;0.12;91.36426;100816.9;;;;-76
2022/12/09 10:02:42;;;;;;;13.6;5.3;;;;;;;;;;;;;-77
2022/12/09 10:05:45;;;;;;;;;;;;;;;0.26;91.44922;100817.8;;;;-77
2022/12/09 10:10:46;;;;;;;;;;;;;;;0.42;90.47852;100811.9;;;;-77
2022/12/09 10:15:44;;;;;;;;;;;;;;;0.49;90.08594;100808.8;;;;-77
2022/12/09 10:20:40;;;;;;;;;;;;;;;0.51;90.40234;100809;;;;-77
2022/12/09 10:25:40;;;;;;;;;;;;;;;0.51;90.91992;100811.9;;;;-76
2022/12/09 10:30:40;;;;;;;;;;;;;;;0.49;90.80566;100817.6;;;;-75
2022/12/09 10:32:35;;;;;;;13.5;5.5;;;;;;;;;;;;;-75
2022/12/09 10:35:39;;;;;;;;;;;;;;;0.49;91.26074;100807.8;;;;-76
2022/12/09 10:40:41;;;;;;;;;;;;;;;0.53;91.34375;100803.1;;;;-75
2022/12/09 10:45:45;;;;;;;;;;;;;;;0.58;91.2998;100797.5;;;;-76
2022/12/09 10:50:39;;;;;;;;;;;;;;;0.66;91.71582;100788.7;;;;-77
2022/12/09 10:55:40;;;;;;;;;;;;;;;0.8;91.31348;100791;;;;-76
2022/12/09 11:00:39;;;;;;;;;;;;;;;0.88;91.13867;100796.8;;;;-76
2022/12/09 11:02:33;;;;;;;18.4;7.1;;;;;;;;;;;;;-76
2022/12/09 11:05:39;;;;;;;;;;;;;;;0.91;91.32813;100799;;;;-76
2022/12/09 11:10:39;;;;;;;;;;;;;;;0.91;91.44629;100798.7;;;;-76
2022/12/09 11:15:41;;;;;;;;;;;;;;;0.92;91.42676;100803.8;;;;-77
2022/12/09 11:20:39;;;;;;;;;;;;;;;0.92;91.96582;100795.1;;;;-76
2022/12/09 11:25:42;;;;;;;;;;;;;;;0.92;91.96582;100806.7;;;;-76
2022/12/09 11:30:43;;;;;;;;;;;;;;;0.98;91.90234;100812.4;;;;-76
2022/12/09 11:32:31;;;;;;;20.6;8.1;;;;;;;;;;;;;-76
2022/12/09 11:35:40;;;;;;;;;;;;;;;1.05;91.85352;100810.1;;;;-77
2022/12/09 11:40:39;;;;;;;;;;;;;;;1.14;91.77539;100797.8;;;;-77
2022/12/09 11:45:40;;;;;;;;;;;;;;;1.2;91.95117;100803.6;;;;-77
2022/12/09 11:50:41;;;;;;;;;;;;;;;1.25;91.43457;100799.6;;;;-77
2022/12/09 11:55:40;;;;;;;;;;;;;;;1.32;91.42676;100796.8;;;;-75
2022/12/09 12:00:44;;;;;;;;;;;;;;;1.36;91.20703;100792.6;;;;-76
2022/12/09 12:02:36;;;;;;;24.2;9.4;;;;;;;;;;;;;-77
2022/12/09 12:06:00;;;;;;;;;;;;;;;1.37;91.55273;100785.4;;;;-77
2022/12/09 12:10:56;;;;;;;;;;;;;;;1.41;91.16504;100781;;;;-76
2022/12/09 12:15:42;;;;;;;;;;;;;;;1.55;91.33398;100781.7;;;;-75
2022/12/09 12:20:44;;;;;;;;;;;;;;;1.64;90.91113;100773.4;;;;-76
2022/12/09 12:25:44;;;;;;;;;;;;;;;1.7;90.27637;100775.9;;;;-76
2022/12/09 12:30:45;;;;;;;;;;;;;;;1.7;90.50293;100764;;;;-76
2022/12/09 12:32:36;;;;;;;29.9;11.6;;;;;;;;;;;;;-76
2022/12/09 12:35:48;;;;;;;;;;;;;;;1.74;90.2627;100761.1;;;;-77
2022/12/09 12:40:42;;;;;;;;;;;;;;;1.79;90.30566;100762.8;;;;-76
2022/12/09 12:50:58;;;;;;;;;;;;;;;1.87;90.30859;100770.5;;;;-76
2022/12/09 12:55:52;;;;;;;;;;;;;;;1.83;90.6377;100770.4;;;;-77
2022/12/09 13:00:45;;;;;;;;;;;;;;;1.78;91.26563;100760.5;;;;-76
2022/12/09 13:02:36;;;;;;;25.8;10.3;;;;;;;;;;;;;-77
2022/12/09 13:05:40;;;;;;;;;;;;;;;1.75;91.71191;100753.5;;;;-77
2022/12/09 13:10:41;;;;;;;;;;;;;;;1.73;91.69531;100744;;;;-77
2022/12/09 13:15:40;;;;;;;;;;;;;;;1.62;92.96973;100744.2;;;;-77
2022/12/09 13:20:42;;;;;;;;;;;;;;;1.56;93.29004;100748.5;;;;-77
2022/12/09 13:25:41;;;;;;;;;;;;;;;1.56;93.2041;100745.8;;;;-77
2022/12/09 13:30:42;;;;;;;;;;;;;;;1.53;93.41406;100740.9;;;;-76
2022/12/09 13:32:34;;;;;;;25.7;9.7;;;;;;;;;;;;;-76
2022/12/09 13:35:42;;;;;;;;;;;;;;;1.53;93.0791;100743;;;;-75
2022/12/09 13:40:40;;;;;;;;;;;;;;;1.51;93.09473;100733.3;;;;-76
2022/12/09 13:45:50;;;;;;;;;;;;;;;1.47;93.46484;100729.4;;;;-76
2022/12/09 13:50:42;;;;;;;;;;;;;;;1.42;93.83008;100725.6;;;;-76
2022/12/09 13:55:43;;;;;;;;;;;;;;;1.37;93.96094;100735.1;;;;-76
2022/12/09 14:00:40;;;;;;;;;;;;;;;1.35;94.02344;100734.7;;;;-75
2022/12/09 14:02:34;;;;;;;21.6;9;;;;;;;;;;;;;-75
2022/12/09 14:05:40;;;;;;;;;;;;;;;1.3;94.22656;100728.6;;;;-75
2022/12/09 14:10:46;;;;;;;;;;;;;;;1.3;94.08496;100727.1;;;;-75
2022/12/09 14:15:42;;;;;;;;;;;;;;;1.24;94.09473;100731.1;;;;-76
2022/12/09 14:20:42;;;;;;;;;;;;;;;1.19;94.28711;100729.4;;;;-76
2022/12/09 14:25:53;;;;;;;;;;;;;;;1.14;94.29883;100730.7;;;;-76
2022/12/09 14:30:54;;;;;;;;;;;;;;;1.07;94.53223;100730.6;;;;-75
2022/12/09 14:32:31;;;;;;;23;8.4;;;;;;;;;;;;;-77
2022/12/09 14:35:43;;;;;;;;;;;;;;;1.02;94.37793;100732.5;;;;-75
2022/12/09 14:40:49;;;;;;;;;;;;;;;0.95;94.56738;100731.4;;;;-76
2022/12/09 14:45:47;;;;;;;;;;;;;;;0.87;94.68066;100740.1;;;;-77
2022/12/09 14:50:39;;;;;;;;;;;;;;;0.8;94.87988;100742.8;;;;-77
2022/12/09 14:55:42;;;;;;;;;;;;;;;0.77;94.74414;100739.8;;;;-76
2022/12/09 15:00:40;;;;;;;;;;;;;;;0.71;94.75391;100742.9;;;;-76
2022/12/09 15:02:28;;;;;;;22;8.4;;;;;;;;;;;;;-76
2022/12/09 15:05:39;;;;;;;;;;;;;;;0.63;94.89746;100736.5;;;;-76
2022/12/09 15:10:41;;;;;;;;;;;;;;;0.59;94.83496;100733.5;;;;-76
2022/12/09 15:15:41;;;;;;;;;;;;;;;0.54;94.8877;100741.6;;;;-76
2022/12/09 15:20:41;;;;;;;;;;;;;;;0.45;95.21191;100741.8;;;;-75
2022/12/09 15:25:47;;;;;;;;;;;;;;;0.39;95.33984;100741.5;;;;-76
2022/12/09 15:30:40;;;;;;;;;;;;;;;0.34;95.28418;100741.9;;;;-76
2022/12/09 15:32:29;;;;;;;22;8.6;;;;;;;;;;;;;-77
2022/12/09 15:35:40;;;;;;;;;;;;;;;0.25;95.3418;100741;;;;-76
2022/12/09 15:42:05;;;;;;;;;;;;;;;0.16;95.32129;100745.1;;;;-76
2022/12/09 15:45:40;;;;;;;;;;;;;;;0.11;95.48926;100755.5;;;;-76
2022/12/09 15:50:41;;;;;;;;;;;;;;;0.05;95.48633;100757.7;;;;-75
2022/12/09 15:55:42;;;;;;;;;;;;;;;-0.02;95.24609;100762.8;;;;-76
2022/12/09 16:00:39;;;;;;;;;;;;;;;-0.07;95.53711;100759.7;;;;-76
2022/12/09 16:02:27;;;;;;;21.6;8.1;;;;;;;;;;;;;-75
2022/12/09 16:05:49;;;;;;;;;;;;;;;-0.1;95.15234;100762.7;;;;-76
2022/12/09 16:10:47;;;;;;;;;;;;;;;-0.18;95.1582;100764.4;;;;-76
2022/12/09 16:15:50;;;;;;;;;;;;;;;-0.24;95.21875;100763.5;;;;-76
2022/12/09 16:20:40;;;;;;;;;;;;;;;-0.32;95.02051;100764;;;;-76
2022/12/09 16:25:46;;;;;;;;;;;;;;;-0.37;95.25488;100767.9;;;;-76
2022/12/09 16:30:46;;;;;;;;;;;;;;;-0.43;95.17676;100766.5;;;;-74
2022/12/09 16:32:27;;;;;;;18.9;7.2;;;;;;;;;;;;;-75
2022/12/09 16:35:41;;;;;;;;;;;;;;;-0.48;95.31641;100764.7;;;;-73
2022/12/09 16:40:49;;;;;;;;;;;;;;;-0.52;95.13672;100769.9;;;;-76
2022/12/09 16:45:40;;;;;;;;;;;;;;;-0.57;95.19141;100774.8;;;;-74
2022/12/09 16:50:40;;;;;;;;;;;;;;;-0.55;95.04297;100774.3;;;;-74
2022/12/09 16:55:39;;;;;;;;;;;;;;;-0.61;94.81445;100762.9;;;;-74
2022/12/09 17:00:40;;;;;;;;;;;;;;;-0.66;94.88086;100768.6;;;;-74
2022/12/09 17:02:23;;;;;;;18.9;7.1;;;;;;;;;;;;;-75
2022/12/09 17:05:39;;;;;;;;;;;;;;;-0.66;95.01855;100769.4;;;;-76
2022/12/09 17:10:39;;;;;;;;;;;;;;;-0.71;95.08398;100774.4;;;;-75
2022/12/09 17:15:39;;;;;;;;;;;;;;;-0.68;95.11133;100789.8;;;;-76
2022/12/09 17:20:40;;;;;;;;;;;;;;;-0.74;95.05566;100785.4;;;;-75
2022/12/09 17:25:41;;;;;;;;;;;;;;;-0.74;95.4209;100793.2;;;;-76
2022/12/09 17:30:39;;;;;;;;;;;;;;;-0.72;95.31543;100795.2;;;;-75
2022/12/09 17:32:21;;;;;;;20.9;7.3;;;;;;;;;;;;;-76
2022/12/09 17:35:39;;;;;;;;;;;;;;;-0.71;95.13672;100792.7;;;;-76
2022/12/09 17:40:38;;;;;;;;;;;;;;;-0.66;95.4502;100795.3;;;;-76
2022/12/09 17:45:38;;;;;;;;;;;;;;;-0.61;95.29688;100799;;;;-75
2022/12/09 17:50:38;;;;;;;;;;;;;;;-0.55;95.47168;100801;;;;-75
2022/12/09 17:55:40;;;;;;;;;;;;;;;-0.55;95.65625;100794.8;;;;-75
2022/12/09 18:00:40;;;;;;;;;;;;;;;-0.52;95.66309;100795;;;;-76
2022/12/09 18:02:20;;;;;;;22.8;8.1;;;;;;;;;;;;;-76
2022/12/09 18:05:39;;;;;;;;;;;;;;;-0.46;95.51563;100796.7;;;;-76
2022/12/09 18:10:39;;;;;;;;;;;;;;;-0.43;95.91699;100794.4;;;;-75
2022/12/09 18:15:39;;;;;;;;;;;;;;;-0.41;96.22168;100789.1;;;;-75
2022/12/09 18:20:39;;;;;;;;;;;;;;;-0.37;96.30664;100794.3;;;;-75
2022/12/09 18:25:42;;;;;;;;;;;;;;;-0.31;96.10645;100794.5;;;;-75
2022/12/09 18:30:40;;;;;;;;;;;;;;;-0.29;95.6709;100800.1;;;;-75
2022/12/09 18:32:21;;;;;;;24.6;8.3;;;;;;;;;;;;;-75
2022/12/09 18:35:42;;;;;;;;;;;;;;;-0.28;95.98438;100813.2;;;;-74
2022/12/09 18:40:59;;;;;;;;;;;;;;;-0.29;95.98242;100816.1;;;;-74
2022/12/09 18:45:39;;;;;;;;;;;;;;;-0.24;96.13184;100813.5;;;;-76
2022/12/09 18:49:40;;;;;;;;;;;;;;;-0.17;95.99805;100815.5;;;;-76
2022/12/09 18:52:55;;;;;;;;;;;;;;;-0.23;96.2002;100822.1;;;;-77
2022/12/09 18:59:29;;;;;;;;;;;;;;;;;;;;;
2022/12/09 19:02:39;;;;;;;20.8;7.6;;;;;;;;;;;;;-76
2022/12/09 19:03:10;;;;;;;;;;;;;;;-0.19;96.16797;100845;;;;-75
2022/12/09 19:07:46;;;;;;;;;;;;;;;-0.17;95.87793;100856.7;;;;-75
2022/12/09 19:12:50;;;;;;;;;;;;;;;-0.15;96.10742;100859.9;;;;-76
2022/12/09 19:17:46;;;;;;;;;;;;;;;-0.12;96.07422;100851.5;;;;-76
2022/12/09 19:22:46;;;;;;;;;;;;;;;-0.09;96.17773;100844.1;;;;-76
2022/12/09 19:27:47;;;;;;;;;;;;;;;-0.1;96.48438;100835.7;;;;-77
2022/12/09 19:32:17;;;;;;;22.6;7.8;;;;;;;;;;;;;-76
2022/12/09 19:32:46;;;;;;;;;;;;;;;-0.1;96.83008;100832.1;;;;-76
2022/12/09 19:37:46;;;;;;;;;;;;;;;-0.08;96.69531;100828.7;;;;-76
2022/12/09 19:42:46;;;;;;;;;;;;;;;-0.06;96.80664;100823.3;;;;-75
2022/12/09 19:47:46;;;;;;;;;;;;;;;-0.05;96.67773;100827.5;;;;-76
2022/12/09 19:52:46;;;;;;;;;;;;;;;-0.05;97.16309;100827.7;;;;-77
2022/12/09 19:57:46;;;;;;;;;;;;;;;-0.04;96.90723;100819;;;;-76
2022/12/09 20:02:17;;;;;;;20.2;8.2;;;;;;;;;;;;;-76
2022/12/09 20:02:49;;;;;;;;;;;;;;;-0.06;96.9248;100828.7;;;;-76
2022/12/09 20:07:46;;;;;;;;;;;;;;;-0.06;96.74219;100834.9;;;;-77
2022/12/09 20:12:46;;;;;;;;;;;;;;;-0.08;97.125;100836.5;;;;-76
2022/12/09 20:17:46;;;;;;;;;;;;;;;-0.09;96.87598;100842.3;;;;-76
2022/12/09 20:22:46;;;;;;;;;;;;;;;-0.07;96.70605;100849.9;;;;-76
2022/12/09 20:27:46;;;;;;;;;;;;;;;-0.08;96.6416;100853.2;;;;-79
2022/12/09 20:32:16;;;;;;;24.7;8.8;;;;;;;;;;;;;-78
2022/12/09 20:32:47;;;;;;;;;;;;;;;-0.11;96.69922;100851.9;;;;-79
2022/12/09 20:37:48;;;;;;;;;;;;;;;-0.1;96.73145;100850.5;;;;-76
2022/12/09 20:42:46;;;;;;;;;;;;;;;-0.13;96.69336;100851.6;;;;-77
2022/12/09 20:47:46;;;;;;;;;;;;;;;-0.16;97.15918;100860.9;;;;-76
2022/12/09 20:52:46;;;;;;;;;;;;;;;-0.17;96.87598;100853.9;;;;-77
2022/12/09 20:57:49;;;;;;;;;;;;;;;-0.17;96.7168;100865.3;;;;-77
2022/12/09 21:02:16;;;;;;;28.2;10;;;;;;;;;;;;;-75
2022/12/09 21:02:46;;;;;;;;;;;;;;;-0.21;96.62305;100867.8;;;;-75
2022/12/09 21:07:46;;;;;;;;;;;;;;;-0.25;96.83789;100868.8;;;;-76
2022/12/09 21:12:46;;;;;;;;;;;;;;;-0.28;96.86426;100872.4;;;;-76
2022/12/09 21:17:58;;;;;;;;;;;;;;;-0.31;96.97656;100870.9;;;;-76
2022/12/09 21:22:47;;;;;;;;;;;;;;;-0.29;97.0127;100874.3;;;;-75
2022/12/09 21:27:46;;;;;;;;;;;;;;;-0.32;96.79199;100878.8;;;;-76
2022/12/09 21:32:15;;;;;;;25.6;9.5;;;;;;;;;;;;;-76
2022/12/09 21:32:46;;;;;;;;;;;;;;;-0.31;96.96582;100873.3;;;;-75
2022/12/09 21:37:46;;;;;;;;;;;;;;;-0.35;96.87988;100873.5;;;;-77
2022/12/09 21:42:46;;;;;;;;;;;;;;;-0.41;97.10352;100878.6;;;;-77
2022/12/09 21:47:46;;;;;;;;;;;;;;;-0.43;96.78613;100876.6;;;;-75
2022/12/09 21:52:46;;;;;;;;;;;;;;;-0.49;96.7334;100880.8;;;;-77
2022/12/09 21:57:46;;;;;;;;;;;;;;;-0.51;96.72461;100880;;;;-75
2022/12/09 22:02:14;;;;;;;25.1;9.2;;;;;;;;;;;;;-75
2022/12/09 22:02:46;;;;;;;;;;;;;;;-0.59;96.625;100879.4;;;;-75
2022/12/09 22:07:46;;;;;;;;;;;;;;;-0.62;96.57324;100882.9;;;;-76
2022/12/09 22:12:46;;;;;;;;;;;;;;;-0.66;96.45605;100873;;;;-75
2022/12/09 22:17:46;;;;;;;;;;;;;;;-0.74;96.60938;100881.3;;;;-75
2022/12/09 22:22:46;;;;;;;;;;;;;;;-0.75;96.30664;100882.9;;;;-75
2022/12/09 22:27:46;;;;;;;;;;;;;;;-0.84;96.40625;100885.6;;;;-76
2022/12/09 22:32:13;;;;;;;27.6;9.3;;;;;;;;;;;;;-76
2022/12/09 22:32:46;;;;;;;;;;;;;;;-0.84;96.50098;100889.3;;;;-76
2022/12/09 22:37:46;;;;;;;;;;;;;;;-0.88;96.21387;100897.4;;;;-76
2022/12/09 22:42:46;;;;;;;;;;;;;;;-0.91;96.26074;100898.5;;;;-76
2022/12/09 22:47:46;;;;;;;;;;;;;;;-0.95;96.30469;100896.7;;;;-75
2022/12/09 22:52:46;;;;;;;;;;;;;;;-0.99;96.18945;100896.1;;;;-75
2022/12/09 22:57:46;;;;;;;;;;;;;;;-1.03;96.35059;100892.5;;;;-75
2022/12/09 23:02:12;;;;;;;22.4;9;;;;;;;;;;;;;-75
2022/12/09 23:02:46;;;;;;;;;;;;;;;-1.06;96.51758;100902.6;;;;-76
2022/12/09 23:07:46;;;;;;;;;;;;;;;-1.1;96.18359;100911.4;;;;-76
2022/12/09 23:12:46;;;;;;;;;;;;;;;-1.1;96.21777;100911.3;;;;-75
2022/12/09 23:17:46;;;;;;;;;;;;;;;-1.14;96.25293;100908.5;;;;-76
2022/12/09 23:22:46;;;;;;;;;;;;;;;-1.16;96.24902;100907.6;;;;-77
2022/12/09 23:27:46;;;;;;;;;;;;;;;-1.2;96.1084;100911.9;;;;-76
2022/12/09 23:32:11;;;;;;;23.8;8.7;;;;;;;;;;;;;-77
2022/12/09 23:32:46;;;;;;;;;;;;;;;-1.22;96.08398;100908.6;;;;-76
2022/12/09 23:37:46;;;;;;;;;;;;;;;-1.24;96.1875;100904.5;;;;-76
2022/12/09 23:43:00;;;;;;;;;;;;;;;-1.29;95.97168;100911.1;;;;-76
2022/12/09 23:47:55;;;;;;;;;;;;;;;-1.24;96.01563;100915;;;;-74
2022/12/09 23:52:32;;;;;;;;;;;;;;;-1.33;95.87793;100910.4;;;;-75
2022/12/09 23:57:32;;;;;;;;;;;;;;;-1.35;95.93555;100906.6;;;;-75
